createdAt,value
2023-03-15T00:01:16.066Z,99.90
2023-03-15T00:03:45.250Z,99.90
2023-03-15T00:06:14.652Z,99.90
2023-03-15T00:08:48.000Z,99.90
2023-03-15T00:11:18.041Z,99.90
2023-03-15T00:13:48.469Z,99.90
2023-03-15T00:16:18.801Z,99.90
2023-03-15T00:18:48.261Z,99.90
2023-03-15T00:21:16.866Z,99.90
2023-03-15T00:23:46.689Z,99.90
2023-03-15T00:26:15.993Z,99.90
2023-03-15T00:28:45.044Z,99.90
2023-03-15T00:31:18.159Z,99.90
2023-03-15T00:33:47.617Z,99.90
2023-03-15T00:36:16.756Z,99.90
2023-03-15T00:38:45.410Z,99.90
2023-03-15T00:41:15.840Z,99.90
2023-03-15T00:43:45.681Z,99.90
2023-03-15T00:46:14.846Z,99.90
2023-03-15T00:48:49.634Z,99.90
2023-03-15T00:51:21.368Z,99.90
2023-03-15T00:53:51.229Z,99.90
2023-03-15T00:56:22.115Z,99.90
2023-03-15T00:58:53.185Z,99.90
2023-03-15T01:01:23.657Z,99.90
2023-03-15T01:03:57.576Z,99.90
2023-03-15T01:06:28.128Z,99.90
2023-03-15T01:08:57.429Z,99.90
2023-03-15T01:11:28.178Z,99.90
2023-03-15T01:13:58.980Z,99.90
2023-03-15T01:16:28.213Z,99.90
2023-03-15T01:18:59.349Z,99.90
2023-03-15T01:21:27.967Z,99.90
2023-03-15T01:23:56.862Z,99.90
2023-03-15T01:26:25.645Z,99.90
2023-03-15T01:28:55.226Z,99.90
2023-03-15T01:31:25.798Z,99.90
2023-03-15T01:33:55.136Z,99.90
2023-03-15T01:36:25.379Z,99.90
2023-03-15T01:38:55.211Z,99.90
2023-03-15T01:41:31.710Z,99.90
2023-03-15T01:44:00.370Z,99.90
2023-03-15T01:46:34.358Z,99.90
2023-03-15T01:49:20.202Z,99.90
2023-03-15T01:51:54.689Z,99.90
2023-03-15T01:54:29.204Z,99.90
2023-03-15T01:57:03.427Z,99.90
2023-03-15T01:59:36.859Z,99.90
2023-03-15T02:02:06.585Z,99.90
2023-03-15T02:04:39.926Z,99.90
2023-03-15T02:07:11.307Z,99.90
2023-03-15T02:09:49.204Z,99.90
2023-03-15T02:12:18.449Z,99.90
2023-03-15T02:14:51.917Z,99.90
2023-03-15T02:17:29.642Z,99.90
2023-03-15T02:20:09.230Z,99.90
2023-03-15T02:22:48.337Z,99.90
2023-03-15T02:25:26.974Z,99.90
2023-03-15T02:27:58.605Z,99.90
2023-03-15T02:30:27.265Z,99.90
2023-03-15T02:32:56.030Z,99.90
2023-03-15T02:35:28.398Z,99.90
2023-03-15T02:37:57.028Z,99.90
2023-03-15T02:40:29.045Z,99.90
2023-03-15T02:43:04.364Z,99.90
2023-03-15T02:45:34.693Z,99.90
2023-03-15T02:48:05.810Z,99.90
2023-03-15T02:50:34.535Z,99.90
2023-03-15T02:53:04.047Z,99.90
2023-03-15T02:55:33.312Z,99.90
2023-03-15T02:58:03.862Z,99.90
2023-03-15T03:00:32.550Z,99.90
2023-03-15T03:03:01.144Z,99.90
2023-03-15T03:05:29.776Z,99.90
2023-03-15T03:07:58.822Z,99.90
2023-03-15T03:10:27.844Z,99.90
2023-03-15T03:12:59.434Z,99.90
2023-03-15T03:15:45.625Z,99.90
2023-03-15T03:18:16.119Z,99.90
2023-03-15T03:20:46.287Z,99.90
2023-03-15T03:23:15.011Z,99.90
2023-03-15T03:25:45.874Z,99.90
2023-03-15T03:28:14.472Z,99.90
2023-03-15T03:30:44.535Z,99.90
2023-03-15T03:33:15.490Z,99.90
2023-03-15T03:35:44.216Z,99.90
2023-03-15T03:38:14.130Z,99.90
2023-03-15T03:40:47.656Z,99.90
2023-03-15T03:43:16.948Z,99.90
2023-03-15T03:45:47.542Z,99.90
2023-03-15T03:48:17.537Z,99.90
2023-03-15T03:50:46.244Z,99.90
2023-03-15T03:53:14.988Z,99.90
2023-03-15T03:55:43.932Z,99.90
2023-03-15T03:58:16.060Z,99.90
2023-03-15T04:00:55.445Z,99.90
2023-03-15T04:03:28.421Z,99.90
2023-03-15T04:06:10.716Z,99.90
2023-03-15T04:08:43.574Z,99.90
2023-03-15T04:11:17.733Z,99.90
2023-03-15T04:13:52.156Z,99.90
2023-03-15T04:16:24.870Z,99.90
2023-03-15T04:19:14.090Z,99.90
2023-03-15T04:21:47.589Z,99.90
2023-03-15T04:24:42.957Z,99.90
2023-03-15T04:27:29.596Z,99.90
2023-03-15T04:30:33.682Z,99.90
2023-03-15T04:33:12.354Z,99.90
2023-03-15T04:36:03.488Z,99.90
2023-03-15T04:39:07.510Z,99.90
2023-03-15T04:41:55.179Z,99.90
2023-03-15T04:44:53.931Z,99.90
2023-03-15T04:47:45.302Z,99.90
2023-03-15T04:50:41.649Z,99.90
2023-03-15T04:53:39.239Z,99.90
2023-03-15T04:56:28.407Z,99.90
2023-03-15T04:59:10.810Z,99.90
2023-03-15T05:02:03.955Z,99.90
2023-03-15T05:04:53.060Z,99.90
2023-03-15T05:07:43.334Z,99.90
2023-03-15T05:10:26.265Z,99.90
2023-03-15T05:13:24.432Z,99.90
2023-03-15T05:16:25.885Z,99.90
2023-03-15T05:19:13.112Z,99.90
2023-03-15T05:22:14.343Z,99.90
2023-03-15T05:24:55.738Z,99.90
2023-03-15T05:27:47.710Z,99.90
2023-03-15T05:30:32.870Z,99.90
2023-03-15T05:33:15.932Z,99.90
2023-03-15T05:36:10.009Z,99.90
2023-03-15T05:38:56.570Z,99.90
2023-03-15T05:41:52.845Z,99.90
2023-03-15T05:45:00.370Z,99.90
2023-03-15T05:47:49.363Z,99.90
2023-03-15T05:50:35.553Z,99.90
2023-03-15T05:53:23.112Z,99.90
2023-03-15T05:56:10.869Z,99.90
2023-03-15T05:59:13.719Z,99.90
2023-03-15T06:02:01.115Z,99.90
2023-03-15T06:04:38.289Z,99.90
2023-03-15T06:07:07.768Z,99.90
2023-03-15T06:09:36.704Z,99.90
2023-03-15T06:12:06.832Z,99.90
2023-03-15T06:14:36.862Z,99.90
2023-03-15T06:17:09.868Z,99.90
2023-03-15T06:19:39.535Z,99.90
2023-03-15T06:22:08.850Z,99.90
2023-03-15T06:24:45.631Z,99.90
2023-03-15T06:27:14.701Z,99.90
2023-03-15T06:29:44.764Z,99.90
2023-03-15T06:32:13.927Z,99.90
2023-03-15T06:34:47.541Z,99.90
2023-03-15T06:37:28.853Z,99.90
2023-03-15T06:40:04.371Z,99.90
2023-03-15T06:42:33.046Z,99.90
2023-03-15T06:45:06.058Z,99.90
2023-03-15T06:47:34.718Z,99.90
2023-03-15T06:50:05.861Z,99.90
2023-03-15T06:52:52.334Z,99.90
2023-03-15T06:55:21.461Z,99.90
2023-03-15T06:57:51.075Z,99.90
2023-03-15T07:00:22.713Z,99.90
2023-03-15T07:02:53.409Z,99.90
2023-03-15T07:05:22.005Z,99.90
2023-03-15T07:07:50.601Z,99.90
2023-03-15T07:10:19.403Z,99.90
2023-03-15T07:12:48.018Z,99.90
2023-03-15T07:15:17.502Z,99.90
2023-03-15T07:17:47.639Z,99.90
2023-03-15T07:20:16.247Z,99.90
2023-03-15T07:22:46.149Z,99.90
2023-03-15T07:25:14.970Z,99.90
2023-03-15T07:27:43.631Z,99.90
2023-03-15T07:30:13.501Z,99.90
2023-03-15T07:32:42.372Z,99.90
2023-03-15T07:35:13.544Z,99.90
2023-03-15T07:37:44.576Z,99.90
2023-03-15T07:40:16.391Z,99.90
2023-03-15T07:42:46.067Z,99.90
2023-03-15T07:45:15.911Z,99.90
2023-03-15T07:47:44.679Z,99.90
2023-03-15T07:50:17.147Z,99.90
2023-03-15T07:52:46.055Z,99.90
2023-03-15T07:55:14.621Z,99.90
2023-03-15T07:57:43.148Z,99.90
2023-03-15T08:00:13.787Z,99.90
2023-03-15T08:02:42.616Z,99.90
2023-03-15T08:05:11.547Z,99.90
2023-03-15T08:07:41.762Z,99.90
2023-03-15T08:10:11.321Z,99.90
2023-03-15T08:12:42.255Z,99.90
2023-03-15T08:15:13.178Z,99.90
2023-03-15T08:17:43.612Z,99.90
2023-03-15T08:20:15.005Z,99.90
2023-03-15T08:22:46.040Z,99.90
2023-03-15T08:25:16.790Z,99.90
2023-03-15T08:27:45.487Z,99.90
2023-03-15T08:30:16.396Z,99.90
2023-03-15T08:32:47.598Z,99.90
2023-03-15T08:35:18.811Z,99.90
2023-03-15T08:37:49.438Z,99.90
2023-03-15T08:40:19.332Z,99.90
2023-03-15T08:42:47.880Z,99.90
2023-03-15T08:45:16.410Z,99.90
2023-03-15T08:47:45.063Z,99.90
2023-03-15T08:50:15.315Z,99.90
2023-03-15T08:52:44.195Z,99.90
2023-03-15T08:55:14.985Z,99.90
2023-03-15T08:57:44.821Z,99.90
2023-03-15T09:00:17.578Z,99.90
2023-03-15T09:02:48.748Z,99.90
2023-03-15T09:05:18.018Z,99.90
2023-03-15T09:07:47.423Z,99.90
2023-03-15T09:10:18.783Z,99.90
2023-03-15T09:12:48.489Z,99.90
2023-03-15T09:15:19.402Z,99.90
2023-03-15T09:17:49.861Z,99.90
2023-03-15T09:20:19.471Z,99.90
2023-03-15T09:22:52.682Z,99.90
2023-03-15T09:25:23.495Z,99.90
2023-03-15T09:27:52.909Z,99.90
2023-03-15T09:30:21.889Z,99.90
2023-03-15T09:32:51.569Z,99.90
2023-03-15T09:35:20.704Z,99.90
2023-03-15T09:37:50.144Z,99.90
2023-03-15T09:40:23.856Z,99.90
2023-03-15T09:43:05.322Z,99.90
2023-03-15T09:45:53.520Z,99.90
2023-03-15T09:48:27.297Z,99.90
2023-03-15T09:50:59.334Z,99.90
2023-03-15T09:53:32.181Z,99.90
2023-03-15T09:56:00.749Z,99.90
2023-03-15T09:58:35.534Z,99.90
2023-03-15T10:01:08.141Z,99.90
2023-03-15T10:03:44.035Z,99.90
2023-03-15T10:06:17.749Z,99.90
2023-03-15T10:08:47.898Z,99.90
2023-03-15T10:11:22.511Z,99.90
2023-03-15T10:14:07.952Z,99.90
2023-03-15T10:16:41.941Z,99.90
2023-03-15T10:19:24.430Z,99.90
2023-03-15T10:21:58.088Z,99.90
2023-03-15T10:24:34.772Z,99.90
2023-03-15T10:27:15.677Z,99.90
2023-03-15T10:29:46.630Z,99.90
2023-03-15T10:32:19.181Z,99.90
2023-03-15T10:34:51.202Z,99.90
2023-03-15T10:37:20.458Z,99.90
2023-03-15T10:39:50.834Z,99.90
2023-03-15T10:42:28.056Z,99.90
2023-03-15T10:44:58.517Z,99.90
2023-03-15T10:49:59.082Z,99.90
2023-03-15T10:52:39.676Z,99.90
2023-03-15T10:55:12.326Z,99.90
2023-03-15T10:57:43.114Z,99.90
2023-03-15T11:00:32.017Z,99.90
2023-03-15T11:03:05.924Z,99.90
2023-03-15T11:05:41.780Z,99.90
2023-03-15T11:08:15.509Z,99.90
2023-03-15T11:10:45.212Z,99.90
2023-03-15T11:13:14.880Z,99.90
2023-03-15T11:15:49.310Z,99.90
2023-03-15T11:18:27.779Z,99.90
2023-03-15T11:20:58.408Z,99.90
2023-03-15T11:23:30.001Z,99.90
2023-03-15T11:25:59.432Z,99.90
2023-03-15T11:28:29.978Z,99.90
2023-03-15T11:31:01.965Z,99.90
2023-03-15T11:33:39.444Z,99.90
2023-03-15T11:36:14.615Z,99.90
2023-03-15T11:38:46.276Z,99.90
2023-03-15T11:41:31.259Z,99.90
2023-03-15T11:44:08.028Z,99.90
2023-03-15T11:46:43.957Z,99.90
2023-03-15T11:49:18.918Z,99.90
2023-03-15T11:51:47.600Z,99.90
2023-03-15T11:54:17.494Z,99.90
2023-03-15T11:56:55.693Z,99.90
2023-03-15T11:59:30.723Z,99.90
2023-03-15T12:02:07.602Z,99.90
2023-03-15T12:04:44.119Z,99.90
2023-03-15T12:07:47.204Z,99.90
2023-03-15T12:10:33.196Z,99.90
2023-03-15T12:13:17.656Z,99.90
2023-03-15T12:15:50.200Z,99.90
2023-03-15T12:18:32.665Z,99.90
2023-03-15T12:21:11.088Z,99.90
2023-03-15T12:23:43.139Z,99.90
2023-03-15T12:26:27.762Z,99.90
2023-03-15T12:29:08.545Z,99.90
2023-03-15T12:31:53.131Z,99.90
2023-03-15T12:34:37.374Z,99.90
2023-03-15T12:37:09.816Z,99.90
2023-03-15T12:39:46.155Z,99.90
2023-03-15T12:42:54.449Z,99.90
2023-03-15T12:45:41.467Z,99.90
2023-03-15T12:48:30.973Z,99.90
2023-03-15T12:51:06.050Z,99.40
2023-03-15T12:53:47.741Z,99.90
2023-03-15T12:56:37.518Z,99.90
2023-03-15T12:59:17.197Z,98.30
2023-03-15T13:01:46.310Z,98.30
2023-03-15T13:04:18.806Z,98.20
2023-03-15T13:07:13.848Z,99.40
2023-03-15T13:10:01.774Z,98.00
2023-03-15T13:12:36.433Z,99.40
2023-03-15T13:15:11.093Z,98.60
2023-03-15T13:17:46.817Z,99.90
2023-03-15T13:20:28.192Z,97.90
2023-03-15T13:23:11.398Z,97.60
2023-03-15T13:25:46.447Z,97.90
2023-03-15T13:28:23.639Z,98.40
2023-03-15T13:30:53.928Z,97.80
2023-03-15T13:33:25.227Z,98.90
2023-03-15T13:36:01.244Z,99.10
2023-03-15T13:38:33.941Z,98.90
2023-03-15T13:41:05.062Z,99.10
2023-03-15T13:43:37.847Z,98.60
2023-03-15T13:46:06.804Z,98.70
2023-03-15T13:48:36.956Z,99.90
2023-03-15T13:51:09.433Z,97.30
2023-03-15T13:53:49.364Z,97.70
2023-03-15T13:56:22.712Z,97.00
2023-03-15T13:58:53.207Z,98.00
2023-03-15T14:01:23.485Z,97.00
2023-03-15T14:03:58.220Z,96.80
2023-03-15T14:06:28.360Z,97.60
2023-03-15T14:09:03.947Z,96.30
2023-03-15T14:11:37.863Z,97.90
2023-03-15T14:14:24.379Z,98.00
2023-03-15T14:17:04.805Z,96.20
2023-03-15T14:19:37.014Z,96.80
2023-03-15T14:22:15.676Z,96.50
2023-03-15T14:24:48.903Z,95.50
2023-03-15T14:27:20.309Z,95.90
2023-03-15T14:29:51.523Z,95.10
2023-03-15T14:32:30.226Z,95.20
2023-03-15T14:35:05.813Z,95.00
2023-03-15T14:37:39.299Z,96.60
2023-03-15T14:40:17.435Z,95.40
2023-03-15T14:42:46.239Z,95.60
2023-03-15T14:45:15.599Z,96.60
2023-03-15T14:47:55.991Z,95.10
2023-03-15T14:50:27.667Z,96.10
2023-03-15T14:52:59.652Z,96.10
2023-03-15T14:55:34.949Z,95.80
2023-03-15T14:58:04.032Z,96.70
2023-03-15T15:00:34.777Z,95.80
2023-03-15T15:03:04.237Z,95.60
2023-03-15T15:05:36.809Z,95.90
2023-03-15T15:08:10.712Z,95.60
2023-03-15T15:10:41.529Z,95.90
2023-03-15T15:13:16.007Z,95.60
2023-03-15T15:15:55.280Z,96.10
2023-03-15T15:18:25.423Z,97.10
2023-03-15T15:20:56.299Z,96.40
2023-03-15T15:23:27.622Z,95.20
2023-03-15T15:25:59.614Z,95.20
2023-03-15T15:28:36.148Z,96.10
2023-03-15T15:31:07.031Z,97.00
2023-03-15T15:33:36.874Z,96.00
2023-03-15T15:36:05.468Z,95.30
2023-03-15T15:38:38.880Z,95.30
2023-03-15T15:41:16.692Z,96.50
2023-03-15T15:43:45.392Z,97.30
2023-03-15T15:46:14.923Z,96.40
2023-03-15T15:48:43.695Z,96.80
2023-03-15T15:51:24.668Z,96.50
2023-03-15T15:53:54.864Z,96.90
2023-03-15T15:56:30.981Z,97.30
2023-03-15T15:58:59.854Z,98.10
2023-03-15T16:01:28.601Z,97.70
2023-03-15T16:03:57.429Z,98.10
2023-03-15T16:06:26.681Z,98.10
2023-03-15T16:08:56.445Z,98.10
2023-03-15T16:11:26.172Z,99.10
2023-03-15T16:13:54.998Z,98.90
2023-03-15T16:16:23.723Z,99.10
2023-03-15T16:18:52.433Z,98.80
2023-03-15T16:21:33.921Z,98.90
2023-03-15T16:24:07.010Z,99.40
2023-03-15T16:26:38.923Z,99.80
2023-03-15T16:29:16.987Z,99.80
2023-03-15T16:31:46.034Z,99.90
2023-03-15T16:34:16.562Z,99.60
2023-03-15T16:36:49.361Z,99.90
2023-03-15T16:39:19.564Z,99.20
2023-03-15T16:41:52.205Z,99.40
2023-03-15T16:44:22.530Z,99.30
2023-03-15T16:46:51.404Z,99.70
2023-03-15T16:49:20.024Z,99.90
2023-03-15T16:51:51.534Z,99.60
2023-03-15T16:54:38.305Z,99.90
2023-03-15T16:57:15.464Z,99.90
2023-03-15T16:59:44.105Z,99.90
2023-03-15T17:02:20.996Z,99.90
2023-03-15T17:04:50.062Z,99.90
2023-03-15T17:07:20.582Z,99.90
2023-03-15T17:09:50.822Z,99.90
2023-03-15T17:12:24.706Z,99.90
2023-03-15T17:14:55.615Z,99.90
2023-03-15T17:17:24.399Z,99.90
2023-03-15T17:19:54.058Z,99.90
2023-03-15T17:22:23.320Z,99.90
2023-03-15T17:24:52.081Z,99.90
2023-03-15T17:27:40.324Z,99.90
2023-03-15T17:30:18.401Z,99.90
2023-03-15T17:32:48.115Z,99.90
2023-03-15T17:35:19.279Z,99.90
2023-03-15T17:37:49.745Z,99.90
2023-03-15T17:40:26.268Z,99.90
2023-03-15T17:42:58.506Z,99.90
2023-03-15T17:45:28.783Z,99.90
2023-03-15T17:47:59.662Z,99.90
2023-03-15T17:50:30.101Z,99.90
2023-03-15T17:53:01.737Z,99.90
2023-03-15T17:55:34.454Z,99.90
2023-03-15T17:58:04.950Z,99.90
2023-03-15T18:00:33.588Z,99.90
2023-03-15T18:03:02.707Z,99.90
2023-03-15T18:05:31.476Z,99.90
2023-03-15T18:08:00.644Z,99.90
2023-03-15T18:10:34.900Z,99.90
2023-03-15T18:13:07.482Z,99.90
2023-03-15T18:15:36.036Z,99.90
2023-03-15T18:18:06.398Z,99.90
2023-03-15T18:20:35.352Z,99.90
2023-03-15T18:23:04.264Z,99.90
2023-03-15T18:25:35.781Z,99.90
2023-03-15T18:28:04.558Z,99.90
2023-03-15T18:30:35.587Z,99.90
2023-03-15T18:33:05.935Z,99.90
2023-03-15T18:35:36.764Z,99.90
2023-03-15T18:38:05.925Z,99.90
2023-03-15T18:40:35.859Z,99.90
2023-03-15T18:43:05.675Z,99.90
2023-03-15T18:45:37.635Z,99.90
2023-03-15T18:48:06.760Z,99.90
2023-03-15T18:50:36.069Z,99.90
2023-03-15T18:53:06.346Z,99.90
2023-03-15T18:55:36.933Z,99.90
2023-03-15T18:58:09.116Z,99.90
2023-03-15T19:00:41.958Z,99.90
2023-03-15T19:03:10.847Z,99.90
2023-03-15T19:05:42.054Z,99.90
2023-03-15T19:08:10.811Z,99.90
2023-03-15T19:38:04.412Z,99.90
2023-03-15T19:40:32.997Z,99.90
2023-03-15T19:43:01.656Z,99.90
2023-03-15T19:45:30.223Z,99.90
2023-03-15T19:48:00.209Z,99.90
2023-03-15T19:50:31.956Z,99.90
2023-03-15T19:53:00.810Z,99.90
2023-03-15T19:55:31.583Z,99.90
2023-03-15T19:58:00.416Z,99.90
2023-03-15T20:00:29.164Z,99.90
2023-03-15T20:02:59.484Z,99.90
2023-03-15T20:05:29.463Z,99.90
2023-03-15T20:07:59.161Z,99.90
2023-03-15T20:10:27.548Z,99.90
2023-03-15T20:12:59.204Z,99.90
2023-03-15T20:15:30.311Z,99.90
2023-03-15T20:17:59.537Z,99.90
2023-03-15T20:20:29.642Z,99.90
2023-03-15T20:22:58.446Z,99.90
2023-03-15T20:25:27.027Z,99.90
2023-03-15T20:27:55.894Z,99.90
2023-03-15T20:30:25.100Z,99.90
2023-03-15T20:32:54.825Z,99.90
2023-03-15T20:35:24.665Z,99.90
2023-03-15T20:37:55.869Z,99.90
2023-03-15T20:40:24.953Z,99.90
2023-03-15T20:42:53.864Z,99.90
2023-03-15T20:45:22.549Z,99.90
2023-03-15T20:47:52.215Z,99.90
2023-03-15T20:50:21.133Z,99.90
2023-03-15T20:52:50.013Z,99.90
2023-03-15T20:55:20.162Z,99.90
2023-03-15T20:57:48.793Z,99.90
2023-03-15T21:00:19.970Z,99.90
2023-03-15T21:02:49.467Z,99.90
2023-03-15T21:05:18.704Z,99.90
2023-03-15T21:07:48.056Z,99.90
2023-03-15T21:10:16.927Z,99.90
2023-03-15T21:12:47.032Z,99.90
2023-03-15T21:15:18.087Z,99.90
2023-03-15T21:17:49.021Z,99.90
2023-03-15T21:20:18.089Z,99.90
2023-03-15T21:22:46.711Z,99.90
2023-03-15T21:25:15.414Z,99.90
2023-03-15T21:27:44.215Z,99.90
2023-03-15T21:30:15.281Z,99.90
2023-03-15T21:32:45.339Z,99.90
2023-03-15T21:35:14.136Z,99.90
2023-03-15T21:37:42.805Z,99.90
2023-03-15T21:40:13.686Z,99.90
2023-03-15T21:42:43.631Z,99.90
2023-03-15T21:45:14.140Z,99.90
2023-03-15T21:47:47.151Z,99.90
2023-03-15T21:50:16.261Z,99.90
2023-03-15T21:52:46.179Z,99.90
2023-03-15T21:55:15.688Z,99.90
2023-03-15T21:57:45.707Z,99.90
2023-03-15T22:00:18.902Z,99.90
2023-03-15T22:02:48.383Z,99.90
2023-03-15T22:05:17.251Z,99.90
2023-03-15T22:07:45.939Z,99.90
2023-03-15T22:10:15.584Z,99.90
2023-03-15T22:12:44.461Z,99.90
2023-03-15T22:15:15.790Z,99.90
2023-03-15T22:17:45.296Z,99.90
2023-03-15T22:20:17.085Z,99.90
2023-03-15T22:22:46.144Z,99.90
2023-03-15T22:25:14.955Z,99.90
2023-03-15T22:27:43.693Z,99.90
2023-03-15T22:30:15.993Z,99.90
2023-03-15T22:32:45.569Z,99.90
2023-03-15T22:35:16.063Z,99.90
2023-03-15T22:37:45.934Z,99.90
2023-03-15T22:40:15.772Z,99.90
2023-03-15T22:42:49.701Z,99.90
2023-03-15T22:45:20.564Z,99.90
2023-03-15T22:47:49.684Z,99.90
2023-03-15T22:50:19.111Z,99.90
2023-03-15T22:52:47.910Z,99.90
2023-03-15T22:55:16.798Z,99.90
2023-03-15T22:57:45.432Z,99.90
2023-03-15T23:00:16.531Z,99.90
2023-03-15T23:02:47.076Z,99.90
2023-03-15T23:05:15.995Z,99.90
2023-03-15T23:07:45.164Z,99.90
2023-03-15T23:10:15.912Z,99.90
2023-03-15T23:12:44.620Z,99.90
2023-03-15T23:15:15.128Z,99.90
2023-03-15T23:17:47.041Z,99.90
2023-03-15T23:20:18.845Z,99.90
2023-03-15T23:22:48.241Z,99.90
2023-03-15T23:25:19.677Z,99.90
2023-03-15T23:27:49.307Z,99.90
2023-03-15T23:30:19.348Z,99.90
2023-03-15T23:32:49.688Z,99.90
2023-03-15T23:35:19.952Z,99.90
2023-03-15T23:37:48.506Z,99.90
2023-03-15T23:40:17.979Z,99.90
2023-03-15T23:42:47.661Z,99.90
2023-03-15T23:45:16.704Z,99.90
2023-03-15T23:47:46.001Z,99.90
2023-03-15T23:50:15.469Z,99.90
2023-03-15T23:52:46.096Z,99.90
2023-03-15T23:55:15.691Z,99.90
2023-03-15T23:57:45.625Z,99.90
